Tiempo atmosférico en la estación meteorológica de Pedraza, Segovia (1107 m.)



Fecha
DESCASC
Temp. máxima en grados centígrados (hora)
DESCASC
Temp. mínima en grados centígrados (hora)
DESCASC
Temp. media en grados centígrados
DESCASC
Racha de viento máxima en m/sg (hora)
DESCASC
Velocidad máxima media en intervalos de 10 minutos(hora)
DESCASC
Precipitaciones diarias en mm
DESCASC
Precipitaciones de 00:00 a 06:00 en mm
DESCASC
Precipitaciones de 06:00 a 12:00 en mm
DESCASC
Precipitaciones de 12:00 a 18:00 en mm
DESCASC
Precipitaciones de 18:00 a 24:00 en mm
DESCASC
01-08-2019 29.5 (17:10) 18 (00:00) 23.8 13.89 (14:50) 6.39 (15:20) 0 0 0 0 0
09-08-2019 26.8 (15:10) 15.8 (00:00) 21.3 13.89 (18:50) 7.78 (18:50) 1.4 0 0 0 1.4
29-07-2019 26.9 (15:50) 14.7 (00:00) 20.8 13.33 (17:30) 8.06 (17:30) 0 0 0 0 0
04-08-2019 32.6 (17:30) 17.7 (00:00) 25.1 12.5 (15:10) 5.56 (17:10) 0 0 0 0 0
11-08-2019 23.3 (15:20) 13.3 (00:00) 18.3 12.5 (14:50) 6.67 (05:40) 0 0 0 0 0
18-08-2019 29.1 (18:10) 16.3 (00:00) 22.7 11.94 (18:20) 6.94 (18:30) 0 0 0 0 0
27-07-2019 21.8 (18:40) 13.2 (00:00) 17.5 11.67 (19:00) 7.22 (13:10) 0 0 0 0 0
31-07-2019 30.3 (17:10) 10.1 (00:00) 20.2 11.11 (13:30) 6.94 (17:50) 0 0 0 0 0
03-08-2019 33.3 (18:50) 17.4 (00:00) 25.3 10.83 (15:20) 5.83 (17:40) 0 0 0 0 0
26-07-2019 25.5 (16:50) 16.7 (00:00) 21.1 10.83 (18:20) 6.67 (17:10) 0 0 0 0 0
16-08-2019 32 (17:30) 15.6 (00:00) 23.8 10.28 (14:50) 7.22 (14:50) 0 0 0 0 0
08-08-2019 30.6 (18:50) 17 (00:00) 23.8 10 (18:50) 6.94 (18:10) 0 0 0 0 0
17-08-2019 34 (16:50) 16.4 (00:00) 25.2 10 (18:50) 6.11 (18:40) 0 0 0 0 0
05-08-2019 33.5 (18:10) 16.1 (00:00) 24.8 10 (15:00) 5.83 (13:30) 0 0 0 0 0
07-08-2019 23.5 (11:40) 17.7 (00:00) 20.6 9.17 (15:30) 6.67 (17:20) 0 0 0 0 0
06-08-2019 31.9 (18:10) 16.9 (00:00) 24.4 8.89 (17:20) 5.28 (17:00) 0 0 0 0 0
15-08-2019 30.2 (18:20) 16.9 (00:00) 23.6 8.61 (16:10) 4.17 (11:40) 0 0 0 0 0
28-07-2019 25.9 (18:40) 7.7 (00:00) 16.8 8.61 (15:40) 5.28 (15:40) 0 0 0 0 0
21-08-2019 27.2 (18:30) 17.3 (00:00) 22.3 8.61 (02:50) 5.28 (03:10) 0 0 0 0 0
12-08-2019 21.3 (17:30) 8.6 (00:00) 14.9 8.33 (15:10) 4.17 (13:20) 0 0 0 0 0
30-07-2019 25 (18:40) 9.5 (00:00) 17.3 8.33 (17:50) 4.17 (16:10) 0 0 0 0 0
23-08-2019 31 (17:50) 16.7 (00:00) 23.9 8.33 (14:10) 4.72 (12:40) 0 0 0 0 0
13-08-2019 24.9 (19:00) 8.3 (00:00) 16.6 8.06 (16:20) 4.72 (17:10) 0 0 0 0 0
14-08-2019 29.5 (19:00) 13.2 (00:00) 21.3 8.06 (17:40) 4.72 (17:40) 0 0 0 0 0
20-08-2019 26.2 (18:50) 12.2 (00:00) 19.2 8.06 (14:50) 4.17 (20:40) 0 0 0 0 0
02-08-2019 32.4 (17:50) 14.5 (00:00) 23.5 7.78 (15:10) 4.17 (18:50) 0 0 0 0 0
24-08-2019 31.3 (16:30) 16.2 (00:00) 23.8 7.5 (14:20) 4.44 (14:50) 0 0 0 0 0
10-08-2019 27.3 (17:50) 13 (00:00) 20.1 7.5 (19:50) 4.44 (19:50) 0 0 0 0 0
19-08-2019 25.5 (15:20) 15.1 (00:00) 20.3 7.22 (17:40) 5 (16:40) 0 0 0 0 0
22-08-2019 29.2 (17:00) 13.1 (00:00) 21.2 6.94 (18:40) 3.61 (12:40) 0 0 0 0 0

Gráficas

Temp. máximas Temp. mínimas Temp. medias Precipitaciones Rachas de viento máximas Velocidades máximas media en intervalos de 10 minutos

Datos horarios

Fecha y hora oficial Temperatura (ºC) Velocidad del viento (km/h) Dirección del viento Racha (km/h) Dirección de racha Precipitación (mm) Presión (hPa) Tendencia (hPa) Humedad (%)
2019-08-24 23:00:00 23.9 9 Sudeste 20 Sur 0 -- -- 29
2019-08-24 22:00:00 24.7 9 Sur 12 Sur 0 -- -- 28
2019-08-24 21:00:00 27.6 6 Nordeste 12 Norte 0 -- -- 23
2019-08-24 20:00:00 30.1 9 Norte 17 Noroeste 0 -- -- 20
2019-08-24 19:00:00 30.6 10 Norte 22 Norte 0 -- -- 19
2019-08-24 18:00:00 31.3 14 Noroeste 22 Noroeste 0 -- -- 19
2019-08-24 17:00:00 31.1 7 Nordeste 24 Nordeste 0 -- -- 19
2019-08-24 16:00:00 31 12 Sudoeste 26 Oeste 0 -- -- 18
2019-08-24 15:00:00 30.3 7 Oeste 27 Oeste 0 -- -- 19
2019-08-24 14:00:00 29.7 13 Noroeste 26 Noroeste 0 -- -- 19
2019-08-24 13:00:00 29.2 13 Norte 23 Noroeste 0 -- -- 20
2019-08-24 12:00:00 28.5 10 Oeste 20 Noroeste 0 -- -- 23
2019-08-24 11:00:00 27.1 8 Oeste 19 Oeste 0 -- -- 26
2019-08-24 10:00:00 25.5 2 Noroeste 6 Sudeste 0 -- -- 25
2019-08-24 09:00:00 21.1 4 Sudeste 12 Sudeste 0 -- -- 32
2019-08-24 08:00:00 16.2 10 Sudeste 13 Sudeste 0 -- -- 40
2019-08-24 07:00:00 18.5 9 Sudeste 14 Sudeste 0 -- -- 35
2019-08-24 06:00:00 19.8 10 Sudeste 26 Sur 0 -- -- 34
2019-08-24 05:00:00 18.8 12 Sudeste 18 Sudeste 0 -- -- 34
2019-08-24 04:00:00 18 13 Sudeste 17 Sudeste 0 -- -- 31
2019-08-24 03:00:00 18.8 11 Sudeste 15 Sudeste 0 -- -- 30
2019-08-24 02:00:00 19 8 Sudeste 10 Sudeste 0 -- -- 31
2019-08-24 01:00:00 19.1 9 Sudeste 12 Sudeste 0 -- -- 33
2019-08-24 00:00:00 20.3 8 Sudeste 13 Sudeste 0 -- -- 33
2019-08-23 23:00:00 22.9 5 Sur 19 Nordeste 0 -- -- 28
2019-08-23 22:00:00 24.5 8 Sudeste 13 Sudeste 0 -- -- 28
2019-08-23 21:00:00 27.7 8 Noroeste 14 Noroeste 0 -- -- 21
2019-08-23 20:00:00 29.6 12 Noroeste 20 Noroeste 0 -- -- 18
2019-08-23 19:00:00 30.8 13 Noroeste 23 Noroeste 0 -- -- 17
2019-08-23 18:00:00 31 14 Noroeste 24 Noroeste 0 -- -- 18
2019-08-23 17:00:00 30.7 13 Oeste 25 Noroeste 0 -- -- 19
2019-08-23 16:00:00 30.5 13 Oeste 27 Oeste 0 -- -- 19
2019-08-23 15:00:00 29.5 9 Sudoeste 30 Sur 0 -- -- 20
2019-08-23 14:00:00 28.6 13 Sur 27 Sudeste 0 -- -- 20
2019-08-23 13:00:00 27.9 14 Sudeste 25 Sudeste 0 -- -- 20
2019-08-23 12:00:00 27.5 7 Sur 24 Sur 0 -- -- 22
2019-08-23 11:00:00 26.3 14 Sur 25 Sur 0 -- -- 26
2019-08-23 10:00:00 24.4 16 Sur 21 Sur 0 -- -- 32
2019-08-23 09:00:00 22 12 Sur 24 Sur 0 -- -- 39
2019-08-23 08:00:00 19.2 12 Sudeste 22 Sudeste 0 -- -- 41
2019-08-23 07:00:00 18.1 13 Sudeste 18 Sudeste 0 -- -- 42
2019-08-23 06:00:00 18.3 13 Sudeste 21 Sudeste 0 -- -- 38
2019-08-23 05:00:00 17.2 6 Sudeste 11 Sur 0 -- -- 40
2019-08-23 04:00:00 18.4 7 Sur 10 Sudeste 0 -- -- 38
2019-08-23 03:00:00 20.2 7 Sur 16 Sudeste 0 -- -- 34
2019-08-23 02:00:00 19 6 Sudeste 18 Sudeste 0 -- -- 32
2019-08-23 01:00:00 19.8 15 Sudeste 20 Sudeste 0 -- -- 33
2019-08-23 00:00:00 18.7 2 Oeste 12 Sudeste 0 -- -- 27
2019-08-22 23:00:00 19.7 8 Sur 13 Sur 0 -- -- 26
2019-08-22 22:00:00 23 6 Noroeste 12 Noroeste 0 -- -- 22
2019-08-22 21:00:00 25.7 8 Nordeste 16 Nordeste 0 -- -- 18
2019-08-22 20:00:00 27.8 8 Nordeste 22 Norte 0 -- -- 16
2019-08-22 19:00:00 28.4 10 Norte 25 Nordeste 0 -- -- 18
2019-08-22 18:00:00 28.9 13 Norte 22 Norte 0 -- -- 19
2019-08-22 17:00:00 29.2 5 Oeste 20 Noroeste 0 -- -- 19
2019-08-22 16:00:00 28.1 11 Norte 23 Noroeste 0 -- -- 19
2019-08-22 15:00:00 27 7 Norte 24 Sur 0 -- -- 21
2019-08-22 14:00:00 25.5 9 Oeste 20 Noroeste 0 -- -- 23
2019-08-22 13:00:00 24.6 11 Norte 22 Norte 0 -- -- 24
2019-08-22 12:00:00 23.8 8 Norte 18 Norte 0 -- -- 36
2019-08-22 11:00:00 22.7 5 Nordeste 11 Norte 0 -- -- 47
2019-08-22 10:00:00 20.9 0 Calma 4 Noroeste 0 -- -- 51
2019-08-22 09:00:00 16.9 0 Calma 9 Sudeste 0 -- -- 59
2019-08-22 08:00:00 13.9 0 Calma 11 Sudeste 0 -- -- 62
2019-08-22 07:00:00 13.9 8 Sudeste 10 Sudeste 0 -- -- 61
2019-08-22 06:00:00 13.7 8 Sudeste 11 Sudeste 0 -- -- 63
2019-08-22 05:00:00 13.5 8 Sudeste 10 Sudeste 0 -- -- 64
2019-08-22 04:00:00 13.7 8 Sudeste 14 Sudeste 0 -- -- 73
2019-08-22 03:00:00 14.9 7 Este 17 Nordeste 0 -- -- 72
2019-08-22 02:00:00 16.8 8 Sudeste 10 Sudeste 0 -- -- 63
2019-08-22 01:00:00 17.7 7 Sudeste 11 Sur 0 -- -- 67
2019-08-22 00:00:00 19 8 Sudeste 16 Sudeste 0 -- -- 60
2019-08-21 23:00:00 20.1 6 Este 22 Nordeste 0 -- -- 40
2019-08-21 22:00:00 22.1 12 Nordeste 23 Nordeste 0 -- -- 36
2019-08-21 21:00:00 24.1 13 Nordeste 28 Norte 0 -- -- 34
2019-08-21 20:00:00 26.2 18 Norte 28 Norte 0 -- -- 28
2019-08-21 19:00:00 27.2 14 Norte 27 Norte 0 -- -- 27
2019-08-21 18:00:00 26.2 11 Norte 23 Norte 0 -- -- 29
2019-08-21 17:00:00 26.5 9 Norte 24 Norte 0 -- -- 32
2019-08-21 16:00:00 26.4 9 Noroeste 17 Nordeste 0 -- -- 31
2019-08-21 15:00:00 25.8 10 Noroeste 19 Norte 0 -- -- 34
2019-08-21 14:00:00 25.1 11 Este 24 Este 0 -- -- 44
2019-08-21 13:00:00 24.8 9 Sudeste 21 Este 0 -- -- 45
2019-08-21 12:00:00 23.9 6 Este 17 Sur 0 -- -- 43
2019-08-21 11:00:00 22.9 8 Sur 25 Sur 0 -- -- 53
2019-08-21 10:00:00 20.8 12 Sur 23 Sur 0 -- -- 61
2019-08-21 09:00:00 18.5 9 Sur 28 Sur 0 -- -- 64
2019-08-21 08:00:00 17.9 7 Sudeste 22 Sudeste 0 -- -- 70
2019-08-21 07:00:00 17.4 9 Sudeste 23 Sudeste 0 -- -- 71
2019-08-21 06:00:00 17.4 16 Sur 25 Sur 0 -- -- 71
2019-08-21 05:00:00 17.8 10 Sudeste 23 Sudeste 0 -- -- 69
2019-08-21 04:00:00 18.2 9 Sur 28 Sudeste 0 -- -- 67
2019-08-21 03:00:00 19 18 Sudeste 31 Sur 0 -- -- 63
2019-08-21 02:00:00 18.6 15 Sudeste 22 Sur 0 -- -- 59
2019-08-21 01:00:00 17.5 10 Sudeste 17 Sudeste 0 -- -- 66
2019-08-21 00:00:00 18 9 Sudeste 16 Sudeste 0 -- -- 63
2019-08-20 23:00:00 18.7 7 Sudeste 10 Sudeste 0 -- -- 57
2019-08-20 22:00:00 19.9 8 Este 17 Nordeste 0 -- -- 52
2019-08-20 21:00:00 22.1 13 Nordeste 23 Nordeste 0 -- -- 45
2019-08-20 20:00:00 24.5 12 Nordeste 20 Nordeste 0 -- -- 37
2019-08-20 19:00:00 25.5 6 Norte 18 Oeste 0 -- -- 32
2019-08-20 18:00:00 24.9 8 Norte 21 Nordeste 0 -- -- 33
2019-08-20 17:00:00 24.6 12 Norte 22 Nordeste 0 -- -- 36
2019-08-20 16:00:00 23.6 9 Nordeste 27 Nordeste 0 -- -- 40
2019-08-20 15:00:00 22.4 11 Nordeste 29 Noroeste 0 -- -- 45
2019-08-20 14:00:00 21.8 12 Norte 24 Norte 0 -- -- 46
2019-08-20 13:00:00 20.3 4 Oeste 21 Noroeste 0 -- -- 56
2019-08-20 12:00:00 19 7 Nordeste 14 Este 0 -- -- 63
2019-08-20 11:00:00 17.1 3 Nordeste 10 Sudoeste 0 -- -- 69
2019-08-20 10:00:00 14.9 3 Sudoeste 8 Noroeste 0 -- -- 76
2019-08-20 09:00:00 12.8 3 Oeste 9 Sudoeste 0 -- -- 85
2019-08-20 08:00:00 12.2 4 Oeste 15 Oeste 0 -- -- 86
2019-08-20 07:00:00 12.9 9 Oeste 18 Oeste 0 -- -- 83
2019-08-20 06:00:00 13.9 3 Sur 6 Oeste 0 -- -- 80
2019-08-20 05:00:00 14 0 Calma 9 Noroeste 0 -- -- 80
2019-08-20 04:00:00 14.6 10 Noroeste 17 Noroeste 0 -- -- 77
2019-08-20 03:00:00 14.8 7 Nordeste 19 Sur 0 -- -- 79
2019-08-20 02:00:00 15.5 4 Noroeste 22 Noroeste 0 -- -- 72
2019-08-20 01:00:00 17.6 3 Este 7 Este 0 -- -- 66
2019-08-20 00:00:00 17.7 5 Sur 10 Sudoeste 0 -- -- 66
2019-08-19 23:00:00 17.7 7 Sudoeste 18 Oeste 0 -- -- 65
2019-08-19 22:00:00 18.6 12 Noroeste 24 Noroeste 0 -- -- 62
2019-08-19 21:00:00 21.2 5 Este 18 Nordeste 0 -- -- 56
2019-08-19 20:00:00 22.1 5 Nordeste 13 Noroeste 0 -- -- 52
2019-08-19 19:00:00 22.8 5 Noroeste 22 Oeste 0 -- -- 51
2019-08-19 18:00:00 23.4 15 Noroeste 26 Noroeste 0 -- -- 49
2019-08-19 17:00:00 24.1 15 Noroeste 26 Noroeste 0 -- -- 48
2019-08-19 16:00:00 25.2 10 Noroeste 23 Noroeste 0 -- -- 44
2019-08-19 15:00:00 25.3 10 Noroeste 17 Noroeste 0 -- -- 45
2019-08-19 14:00:00 24.9 6 Este 17 Nordeste 0 -- -- 46
2019-08-19 13:00:00 23.4 9 Norte 19 Noroeste 0 -- -- 50
2019-08-19 12:00:00 22.7 11 Noroeste 20 Noroeste 0 -- -- 52
2019-08-19 11:00:00 20.5 7 Norte 12 Norte 0 -- -- 57
2019-08-19 10:00:00 18.9 5 Norte 9 Oeste 0 -- -- 63
2019-08-19 09:00:00 16.9 0 Calma 6 Sudeste 0 -- -- 70
2019-08-19 08:00:00 15.1 2 Sudeste 6 Norte 0 -- -- 74
2019-08-19 07:00:00 16.1 6 Nordeste 8 Norte 0 -- -- 72
2019-08-19 06:00:00 17 5 Norte 7 Nordeste 0 -- -- 70
2019-08-19 05:00:00 18.1 3 Sudoeste 6 Norte 0 -- -- 65
2019-08-19 04:00:00 18.3 2 Oeste 10 Noroeste 0 -- -- 64
2019-08-19 03:00:00 18.6 6 Sur 9 Sudeste 0 -- -- 64
2019-08-19 02:00:00 18.9 4 Sur 10 Sudeste 0 -- -- 64
2019-08-19 01:00:00 18.2 6 Sudeste 9 Sudeste 0 -- -- 67
2019-08-19 00:00:00 20.3 4 Sudoeste 5 Sudoeste 0 -- -- 60
2019-08-18 23:00:00 21.9 2 Norte 14 Norte 0 -- -- 57
2019-08-18 22:00:00 23.3 7 Noroeste 26 Oeste 0 -- -- 42
2019-08-18 21:00:00 25.1 17 Oeste 30 Oeste 0 -- -- 33
2019-08-18 20:00:00 27.4 23 Oeste 36 Oeste 0 -- -- 27
2019-08-18 19:00:00 28.1 21 Oeste 43 Oeste 0 -- -- 25
2019-08-18 18:00:00 27.8 24 Oeste 40 Oeste 0 -- -- 26
2019-08-18 17:00:00 27.7 19 Oeste 34 Oeste 0 -- -- 29
2019-08-18 16:00:00 28.5 17 Oeste 35 Oeste 0 -- -- 30
2019-08-18 15:00:00 27.3 16 Noroeste 36 Oeste 0 -- -- 31
2019-08-18 14:00:00 27.9 23 Noroeste 34 Noroeste 0 -- -- 32
2019-08-18 13:00:00 27 10 Oeste 19 Noroeste 0 -- -- 33
2019-08-18 12:00:00 23.9 8 Oeste 18 Noroeste 0 -- -- 43
2019-08-18 11:00:00 22.1 6 Noroeste 14 Sudoeste 0 -- -- 45
2019-08-18 10:00:00 20.4 5 Oeste 14 Noroeste 0 -- -- 48
2019-08-18 09:00:00 19.1 4 Oeste 6 Oeste 0 -- -- 46
2019-08-18 08:00:00 16.4 2 Sudeste 12 Sudeste 0 -- -- 51
2019-08-18 07:00:00 18.1 6 Sur 14 Sur 0 -- -- 45
2019-08-18 06:00:00 19.1 8 Sur 24 Sudoeste 0 -- -- 44
2019-08-18 05:00:00 20.5 11 Sudoeste 26 Sur 0 -- -- 41
2019-08-18 04:00:00 19.1 0 Calma 11 Sudeste 0 -- -- 38
2019-08-18 03:00:00 19.5 6 Sudeste 11 Sur 0 -- -- 37
2019-08-18 02:00:00 21.4 9 Sudeste 12 Sur 0 -- -- 33
2019-08-18 01:00:00 21.4 9 Sur 13 Sudeste 0 -- -- 33
2019-08-18 00:00:00 22.6 8 Sudeste 9 Sur 0 -- -- 33
2019-08-17 23:00:00 23.8 7 Sudeste 12 Sur 0 -- -- 33
2019-08-17 22:00:00 26 9 Sudeste 15 Oeste 0 -- -- 29
2019-08-17 21:00:00 29.4 13 Oeste 27 Oeste 0 -- -- 24
2019-08-17 20:00:00 31.6 14 Oeste 29 Oeste 0 -- -- 23
2019-08-17 19:00:00 32.6 21 Noroeste 36 Noroeste 0 -- -- 21
2019-08-17 18:00:00 33.4 19 Oeste 36 Oeste 0 -- -- 20
2019-08-17 17:00:00 33.7 13 Oeste 28 Oeste 0 -- -- 19
2019-08-17 16:00:00 32.7 9 Oeste 30 Noroeste 0 -- -- 20
2019-08-17 15:00:00 31.9 14 Noroeste 32 Oeste 0 -- -- 23
2019-08-17 14:00:00 31 18 Noroeste 28 Noroeste 0 -- -- 24
2019-08-17 13:00:00 29.8 17 Oeste 27 Sudoeste 0 -- -- 26
2019-08-17 12:00:00 27.8 8 Noroeste 18 Noroeste 0 -- -- 31
2019-08-17 11:00:00 25.9 4 Norte 10 Noroeste 0 -- -- 31
2019-08-17 10:00:00 23.2 0 Calma 8 Sur 0 -- -- 35
2019-08-17 09:00:00 19.8 2 Sudoeste 8 Noroeste 0 -- -- 42
2019-08-17 08:00:00 16.4 5 Norte 12 Sudeste 0 -- -- 48
2019-08-17 07:00:00 16.9 6 Sudeste 10 Sudeste 0 -- -- 46
2019-08-17 06:00:00 18 10 Sudeste 13 Sudeste 0 -- -- 43
2019-08-17 05:00:00 17.6 6 Sudeste 9 Sudeste 0 -- -- 44
2019-08-17 04:00:00 17.9 4 Sur 9 Sudoeste 0 -- -- 43
2019-08-17 03:00:00 19.7 8 Sudoeste 12 Sur 0 -- -- 39
2019-08-17 02:00:00 20.6 4 Sur 13 Sudeste 0 -- -- 39
2019-08-17 01:00:00 21.2 8 Sudeste 12 Sudeste 0 -- -- 41
2019-08-17 00:00:00 22.1 7 Sudeste 10 Sudeste 0 -- -- 38
2019-08-16 23:00:00 22.7 6 Sudeste 8 Sur 0 -- -- 37
2019-08-16 22:00:00 25.3 5 Sur 18 Oeste 0 -- -- 32
2019-08-16 21:00:00 28.8 12 Oeste 26 Oeste 0 -- -- 27
2019-08-16 20:00:00 30.5 15 Oeste 32 Noroeste 0 -- -- 28
2019-08-16 19:00:00 31.3 18 Oeste 34 Oeste 0 -- -- 27
2019-08-16 18:00:00 32 20 Noroeste 37 Oeste 0 -- -- 26
2019-08-16 17:00:00 31.7 14 Noroeste 37 Oeste 0 -- -- 25
2019-08-16 16:00:00 31 19 Oeste 37 Oeste 0 -- -- 25
2019-08-16 15:00:00 30.5 23 Oeste 37 Oeste 0 -- -- 25
2019-08-16 14:00:00 29.7 18 Oeste 34 Oeste 0 -- -- 27
2019-08-16 13:00:00 28.8 12 Noroeste 30 Noroeste 0 -- -- 31
2019-08-16 12:00:00 27.6 9 Oeste 18 Oeste 0 -- -- 33
2019-08-16 11:00:00 25.8 6 Noroeste 14 Noroeste 0 -- -- 38
2019-08-16 10:00:00 23.5 5 Oeste 12 Sudoeste 0 -- -- 42
2019-08-16 09:00:00 20.8 5 Sudoeste 11 Sudoeste 0 -- -- 47
2019-08-16 08:00:00 16.2 3 Sur 6 Sur 0 -- -- 60
2019-08-16 07:00:00 17.3 3 Oeste 12 Sudeste 0 -- -- 57
2019-08-16 06:00:00 18.1 10 Sudeste 13 Sudeste 0 -- -- 55
2019-08-16 05:00:00 17.8 8 Sudeste 13 Sudeste 0 -- -- 57
2019-08-16 04:00:00 18.2 11 Sudeste 13 Sudeste 0 -- -- 57
2019-08-16 03:00:00 18.5 11 Sudeste 13 Sudeste 0 -- -- 56
2019-08-16 02:00:00 18.8 9 Sudeste 12 Sudeste 0 -- -- 55
2019-08-16 01:00:00 19.2 8 Este 12 Este 0 -- -- 55
2019-08-16 00:00:00 20.2 6 Sudeste 13 Este 0 -- -- 51
2019-08-15 23:00:00 22.1 10 Nordeste 19 Nordeste 0 -- -- 46
2019-08-15 22:00:00 23.8 13 Nordeste 23 Norte 0 -- -- 43
2019-08-15 21:00:00 27.6 8 Norte 21 Noroeste 0 -- -- 33
2019-08-15 20:00:00 28.6 12 Norte 25 Norte 0 -- -- 30
2019-08-15 19:00:00 29.2 12 Norte 26 Noroeste 0 -- -- 28
2019-08-15 18:00:00 29.8 15 Noroeste 26 Noroeste 0 -- -- 26
2019-08-15 17:00:00 29.9 14 Noroeste 31 Noroeste 0 -- -- 26
2019-08-15 16:00:00 29.3 9 Oeste 25 Noroeste 0 -- -- 26
2019-08-15 15:00:00 27.8 9 Norte 24 Oeste 0 -- -- 28
2019-08-15 14:00:00 26.8 9 Norte 24 Noroeste 0 -- -- 33
2019-08-15 13:00:00 25.6 12 Noroeste 24 Noroeste 0 -- -- 38
2019-08-15 12:00:00 24.3 14 Noroeste 25 Noroeste 0 -- -- 48
2019-08-15 11:00:00 23.3 11 Oeste 18 Oeste 0 -- -- 52
2019-08-15 10:00:00 21.9 9 Oeste 17 Noroeste 0 -- -- 56
2019-08-15 09:00:00 19.1 5 Norte 9 Noroeste 0 -- -- 63
2019-08-15 08:00:00 17.4 7 Sur 17 Oeste 0 -- -- 65
2019-08-15 07:00:00 17.5 7 Oeste 16 Oeste 0 -- -- 66
2019-08-15 06:00:00 17.6 6 Oeste 12 Noroeste 0 -- -- 45
2019-08-15 05:00:00 17.9 8 Sudeste 15 Sur 0 -- -- 44
2019-08-15 04:00:00 17.4 5 Sudeste 27 Noroeste 0 -- -- 44
2019-08-15 03:00:00 19 8 Sudeste 11 Sudeste 0 -- -- 40
2019-08-15 02:00:00 19.2 9 Sudeste 12 Sudeste 0 -- -- 39
2019-08-15 01:00:00 19.1 10 Sudeste 12 Sudeste 0 -- -- 38
2019-08-15 00:00:00 20.2 9 Sudeste 11 Sudeste 0 -- -- 34
2019-08-14 23:00:00 20.6 8 Sudeste 11 Sudeste 0 -- -- 33
2019-08-14 22:00:00 22.7 5 Sur 12 Noroeste 0 -- -- 29
2019-08-14 21:00:00 27.1 8 Oeste 20 Oeste 0 -- -- 23
2019-08-14 20:00:00 28.4 13 Oeste 24 Oeste 0 -- -- 20
2019-08-14 19:00:00 29.5 11 Noroeste 23 Noroeste 0 -- -- 19
2019-08-14 18:00:00 28.9 14 Noroeste 29 Oeste 0 -- -- 20
2019-08-14 17:00:00 28.5 14 Oeste 24 Oeste 0 -- -- 21
2019-08-14 16:00:00 28.2 11 Oeste 27 Noroeste 0 -- -- 22
2019-08-14 15:00:00 27.4 8 Sudoeste 22 Oeste 0 -- -- 22
2019-08-14 14:00:00 25.9 11 Oeste 22 Noroeste 0 -- -- 23
2019-08-14 13:00:00 24.8 12 Oeste 23 Noroeste 0 -- -- 25
2019-08-14 12:00:00 23.8 8 Noroeste 24 Noroeste 0 -- -- 27
2019-08-14 11:00:00 22.6 8 Noroeste 20 Noroeste 0 -- -- 28
2019-08-14 10:00:00 21.2 7 Noroeste 11 Noroeste 0 -- -- 28
2019-08-14 09:00:00 18.5 4 Sudeste 12 Sudeste 0 -- -- 39
2019-08-14 08:00:00 13.7 10 Sudeste 12 Sudeste 0 -- -- 45
2019-08-14 07:00:00 13.9 10 Sudeste 14 Sudeste 0 -- -- 43
2019-08-14 06:00:00 14.4 7 Sudeste 11 Sudeste 0 -- -- 41
2019-08-14 05:00:00 14.5 9 Sudeste 12 Sudeste 0 -- -- 40
2019-08-14 04:00:00 13.7 9 Sudeste 11 Sudeste 0 -- -- 42
2019-08-14 03:00:00 13.6 10 Sudeste 15 Sudeste 0 -- -- 43
2019-08-14 02:00:00 13.6 9 Este 11 Sudeste 0 -- -- 42
2019-08-14 01:00:00 13.9 8 Sudeste 11 Sudeste 0 -- -- 41
2019-08-14 00:00:00 14.9 9 Sudeste 12 Sudeste 0 -- -- 37
2019-08-13 23:00:00 15.9 9 Sudeste 15 Sudeste 0 -- -- 36
2019-08-13 22:00:00 19.5 6 Nordeste 12 Norte 0 -- -- 28
2019-08-13 21:00:00 22.2 7 Norte 17 Noroeste 0 -- -- 25
2019-08-13 20:00:00 23.8 9 Norte 23 Norte 0 -- -- 25
2019-08-13 19:00:00 24.9 12 Noroeste 27 Noroeste 0 -- -- 22
2019-08-13 18:00:00 24.6 13 Noroeste 29 Noroeste 0 -- -- 22
2019-08-13 17:00:00 24.3 13 Noroeste 29 Oeste 0 -- -- 24
2019-08-13 16:00:00 23.8 9 Noroeste 25 Noroeste 0 -- -- 24
2019-08-13 15:00:00 22.5 15 Oeste 27 Noroeste 0 -- -- 25
2019-08-13 14:00:00 21.4 8 Oeste 28 Noroeste 0 -- -- 30
2019-08-13 13:00:00 20.1 8 Noroeste 17 Norte 0 -- -- 32
2019-08-13 12:00:00 19.2 12 Norte 21 Norte 0 -- -- 32
2019-08-13 11:00:00 18.1 8 Norte 15 Noroeste 0 -- -- 34
2019-08-13 10:00:00 15.5 6 Noroeste 9 Noroeste 0 -- -- 50
2019-08-13 09:00:00 13.4 0 Calma 7 Este 0 -- -- 57
2019-08-13 08:00:00 9.8 8 Este 12 Sudeste 0 -- -- 65
2019-08-13 07:00:00 8.9 9 Sudeste 16 Sudeste 0 -- -- 73
2019-08-13 06:00:00 8.8 6 Sudeste 10 Este 0 -- -- 73
2019-08-13 05:00:00 11 4 Este 10 Este 0 -- -- 63
2019-08-13 04:00:00 11.3 5 Este 7 Nordeste 0 -- -- 65
2019-08-13 03:00:00 11.9 3 Sudeste 9 Nordeste 0 -- -- 63
2019-08-13 02:00:00 11.5 5 Nordeste 8 Nordeste 0 -- -- 61
2019-08-13 01:00:00 12.3 4 Sudeste 6 Sudeste 0 -- -- 58
2019-08-13 00:00:00 14.3 4 Sudeste 14 Nordeste 0 -- -- 52
2019-08-12 23:00:00 15.1 9 Nordeste 23 Nordeste 0 -- -- 49
2019-08-12 22:00:00 16.5 9 Nordeste 18 Norte 0 -- -- 41
2019-08-12 21:00:00 17.9 13 Norte 26 Norte 0 -- -- 36
2019-08-12 20:00:00 20.3 14 Norte 27 Noroeste 0 -- -- 29
2019-08-12 19:00:00 21.3 11 Noroeste 27 Noroeste 0 -- -- 27
2019-08-12 18:00:00 21.3 12 Norte 25 Noroeste 0 -- -- 29
2019-08-12 17:00:00 20.7 14 Norte 27 Norte 0 -- -- 30
2019-08-12 16:00:00 20.5 14 Noroeste 30 Norte 0 -- -- 31
2019-08-12 15:00:00 19.4 14 Noroeste 28 Noroeste 0 -- -- 35
2019-08-12 14:00:00 18.1 14 Norte 27 Norte 0 -- -- 39
2019-08-12 13:00:00 17 9 Noroeste 23 Noroeste 0 -- -- 42
2019-08-12 12:00:00 15.3 9 Noroeste 24 Noroeste 0 -- -- 53
2019-08-12 11:00:00 14.1 10 Noroeste 24 Oeste 0 -- -- 59
2019-08-12 10:00:00 11.7 9 Oeste 16 Oeste 0 -- -- 74
2019-08-12 09:00:00 9.9 8 Oeste 16 Oeste 0 -- -- 84
2019-08-12 08:00:00 9.5 8 Oeste 13 Oeste 0 -- -- 86
2019-08-12 07:00:00 9.1 6 Oeste 12 Oeste 0 -- -- 89
2019-08-12 06:00:00 8.8 3 Oeste 6 Oeste 0 -- -- 87
2019-08-12 05:00:00 9.2 2 Sudeste 7 Sudoeste 0 -- -- 84
2019-08-12 04:00:00 10 5 Oeste 13 Oeste 0 -- -- 82
2019-08-12 03:00:00 11.2 8 Oeste 13 Sudoeste 0 -- -- 67
2019-08-12 02:00:00 12.3 6 Sudoeste 17 Oeste 0 -- -- 60
2019-08-12 01:00:00 13.7 10 Sudoeste 17 Oeste 0 -- -- 52
2019-08-12 00:00:00 14.6 10 Oeste 23 Oeste 0 -- -- 42
2019-08-11 23:00:00 15.9 5 Sur 13 Oeste 0 -- -- 39
2019-08-11 22:00:00 17.8 10 Oeste 22 Noroeste 0 -- -- 35
2019-08-11 21:00:00 19.4 16 Oeste 30 Noroeste 0 -- -- 35
2019-08-11 20:00:00 21.5 16 Oeste 32 Oeste 0 -- -- 34
2019-08-11 19:00:00 22.5 20 Oeste 45 Oeste 0 -- -- 31
2019-08-11 18:00:00 22.1 19 Oeste 34 Oeste 0 -- -- 37
2019-08-11 17:00:00 22.3 20 Oeste 34 Oeste 0 -- -- 39
2019-08-11 16:00:00 22.7 22 Oeste 37 Oeste 0 -- -- 43
2019-08-11 15:00:00 22.4 19 Oeste 45 Noroeste 0 -- -- 42
2019-08-11 14:00:00 21.5 23 Oeste 33 Oeste 0 -- -- 44
2019-08-11 13:00:00 21.9 19 Oeste 36 Oeste 0 -- -- 39
2019-08-11 12:00:00 21.7 16 Noroeste 25 Noroeste 0 -- -- 44
2019-08-11 11:00:00 20.6 7 Noroeste 14 Noroeste 0 -- -- 44
2019-08-11 10:00:00 18.2 6 Sudeste 14 Este 0 -- -- 55
2019-08-11 09:00:00 16.1 5 Este 9 Sudeste 0 -- -- 68
2019-08-11 08:00:00 13.3 3 Este 10 Sudeste 0 -- -- 76
2019-08-11 07:00:00 14.6 8 Este 20 Noroeste 0 -- -- 73
2019-08-11 06:00:00 15.5 18 Noroeste 42 Oeste 0 -- -- 66
2019-08-11 05:00:00 16.4 5 Sudeste 12 Sudeste 0 -- -- 56
2019-08-11 04:00:00 15.8 7 Sur 10 Sur 0 -- -- 58
2019-08-11 03:00:00 16.3 3 Noroeste 14 Oeste 0 -- -- 55
2019-08-11 02:00:00 16.5 8 Sudeste 10 Sudeste 0 -- -- 58
2019-08-11 01:00:00 17.1 3 Sudeste 10 Sudeste 0 -- -- 54
2019-08-11 00:00:00 18.4 6 Sudeste 10 Sudeste 0 -- -- 57
2019-08-10 23:00:00 20.2 4 Sudeste 9 Sudeste 0 -- -- 52
2019-08-10 22:00:00 21.6 2 Este 14 Noroeste 0 -- -- 46
2019-08-10 21:00:00 22.2 3 Este 8 Oeste 0 -- -- 49
2019-08-10 20:00:00 22.9 10 Sur 27 Sur 0 -- -- 40
2019-08-10 19:00:00 26.1 6 Oeste 16 Noroeste 0 -- -- 31
2019-08-10 18:00:00 27.3 13 Noroeste 22 Sudoeste 0 -- -- 31
2019-08-10 17:00:00 26.3 11 Oeste 22 Noroeste 0 -- -- 33
2019-08-10 16:00:00 25.6 9 Norte 22 Noroeste 0 -- -- 40
2019-08-10 15:00:00 24 9 Noroeste 20 Oeste 0 -- -- 46
2019-08-10 14:00:00 22.7 7 Oeste 18 Noroeste 0 -- -- 51
2019-08-10 13:00:00 20.4 5 Nordeste 13 Nordeste 0 -- -- 57
2019-08-10 12:00:00 19.2 5 Norte 11 Norte 0 -- -- 57
2019-08-10 11:00:00 17.7 5 Nordeste 10 Noroeste 0 -- -- 62
2019-08-10 10:00:00 15.9 6 Noroeste 11 Noroeste 0 -- -- 70
2019-08-10 09:00:00 14.8 0 Calma 6 Sudeste 0 -- -- 81
2019-08-10 08:00:00 13 2 Oeste 6 Noroeste 0 -- -- 88
2019-08-10 07:00:00 13.4 3 Sur 9 Sudoeste 0 -- -- 88
2019-08-10 06:00:00 13.2 5 Sur 9 Sudoeste 0 -- -- 89
2019-08-10 05:00:00 13.8 4 Oeste 7 Oeste 0 -- -- 86
2019-08-10 04:00:00 14.5 4 Sudoeste 8 Sudoeste 0 -- -- 83
2019-08-10 03:00:00 15.5 5 Oeste 10 Sudoeste 0 -- -- 81
2019-08-10 02:00:00 16.3 4 Sudoeste 15 Sudoeste 0 -- -- 80
2019-08-10 01:00:00 16.5 3 Este 9 Oeste 0 -- -- 83
2019-08-10 00:00:00 16.8 6 Sudoeste 14 Sudoeste 0 -- -- 82
2019-08-09 23:00:00 17.7 9 Oeste 26 Sudoeste 0.2 -- -- 81
2019-08-09 22:00:00 16.4 13 Sudoeste 21 Sur 0 -- -- 87
2019-08-09 21:00:00 15.9 8 Sudeste 24 Oeste 0 -- -- 86
2019-08-09 20:00:00 16.1 15 Oeste 42 Oeste 0 -- -- 83
2019-08-09 19:00:00 18.4 19 Oeste 50 Oeste 1.2 -- -- 80
2019-08-09 18:00:00 22.6 15 Oeste 31 Oeste 0 -- -- 64
2019-08-09 17:00:00 23.4 20 Oeste 41 Oeste 0 -- -- 62
2019-08-09 16:00:00 25.4 24 Oeste 38 Oeste 0 -- -- 54
2019-08-09 15:00:00 26.1 18 Oeste 32 Oeste 0 -- -- 53
2019-08-09 14:00:00 25.3 22 Oeste 37 Sudoeste 0 -- -- 52
2019-08-09 13:00:00 25.9 21 Oeste 39 Oeste 0 -- -- 45
2019-08-09 12:00:00 25.7 18 Oeste 35 Oeste 0 -- -- 45
2019-08-09 11:00:00 25.2 18 Oeste 35 Oeste 0 -- -- 43
2019-08-09 10:00:00 23.1 13 Oeste 22 Oeste 0 -- -- 48
2019-08-09 09:00:00 21.2 0 Calma 6 Sudeste 0 -- -- 58
2019-08-09 08:00:00 17.5 5 Este 13 Sudeste 0 -- -- 72
2019-08-09 07:00:00 16 5 Sudeste 8 Sudeste 0 -- -- 75
2019-08-09 06:00:00 16.9 3 Sur 8 Sudeste 0 -- -- 68
2019-08-09 05:00:00 17.5 0 Calma 7 Sudeste 0 -- -- 61
2019-08-09 04:00:00 17.4 5 Sudeste 9 Sudeste 0 -- -- 61
2019-08-09 03:00:00 18.4 3 Sur 8 Sudoeste 0 -- -- 56
2019-08-09 02:00:00 20.9 3 Oeste 21 Oeste 0 -- -- 49
2019-08-09 01:00:00 20.9 6 Sur 14 Sudoeste 0 -- -- 48
2019-08-09 00:00:00 21.9 8 Sur 14 Sur 0 -- -- 49
2019-08-08 23:00:00 23.6 7 Sur 20 Oeste 0 -- -- 48
2019-08-08 22:00:00 25 12 Oeste 33 Oeste 0 -- -- 46
2019-08-08 21:00:00 27.2 21 Oeste 33 Oeste 0 -- -- 40
2019-08-08 20:00:00 28.6 14 Sudoeste 30 Sudoeste 0 -- -- 37
2019-08-08 19:00:00 29.5 18 Oeste 36 Oeste 0 -- -- 36
2019-08-08 18:00:00 30.3 23 Oeste 36 Oeste 0 -- -- 35
2019-08-08 17:00:00 29.2 7 Sur 16 Sur 0 -- -- 37
2019-08-08 16:00:00 28.1 9 Sudeste 21 Sur 0 -- -- 39
2019-08-08 15:00:00 27.7 12 Sur 21 Sur 0 -- -- 42
2019-08-08 14:00:00 26.7 12 Sur 31 Oeste 0 -- -- 43
2019-08-08 13:00:00 25.8 16 Oeste 30 Oeste 0 -- -- 48
2019-08-08 12:00:00 24.3 14 Oeste 30 Sudoeste 0 -- -- 53
2019-08-08 11:00:00 22.5 14 Oeste 32 Oeste 0 -- -- 55
2019-08-08 10:00:00 21.7 8 Sur 17 Sudoeste 0 -- -- 57
2019-08-08 09:00:00 19.2 0 Calma 8 Sudeste 0 -- -- 64
2019-08-08 08:00:00 18.5 5 Sudeste 9 Sur 0 -- -- 61
2019-08-08 07:00:00 18.4 3 Sur 17 Sudoeste 0 -- -- 61
2019-08-08 06:00:00 18.5 4 Sudoeste 13 Sudoeste 0 -- -- 60
2019-08-08 05:00:00 18.1 4 Sur 11 Sur 0 -- -- 61
2019-08-08 04:00:00 17.2 5 Sur 12 Sudoeste 0 -- -- 63
2019-08-08 03:00:00 17.7 10 Sudoeste 16 Sudoeste 0 -- -- 62
2019-08-08 02:00:00 17.5 6 Sudoeste 12 Sudoeste 0 -- -- 62
2019-08-08 01:00:00 17.4 6 Sudeste 10 Sur 0 -- -- 62
2019-08-08 00:00:00 17.7 6 Sur 12 Sur 0 -- -- 62
2019-08-07 23:00:00 18.6 6 Sur 10 Sudoeste 0 -- -- 61
2019-08-07 22:00:00 19.9 6 Sudoeste 11 Sudoeste 0 -- -- 54
2019-08-07 21:00:00 21.4 4 Sudoeste 26 Sudoeste 0 -- -- 51
2019-08-07 20:00:00 21.2 14 Sudoeste 22 Sudoeste 0 -- -- 55
2019-08-07 19:00:00 20.4 12 Sudoeste 22 Sudoeste 0 -- -- 60
2019-08-07 18:00:00 19.2 8 Sudoeste 33 Sudoeste 0 -- -- 66
2019-08-07 17:00:00 23.3 16 Oeste 27 Oeste 0 -- -- 38
2019-08-07 16:00:00 22.9 10 Sudoeste 33 Sudoeste 0 -- -- 43
2019-08-07 15:00:00 23.3 14 Oeste 23 Sudoeste 0 -- -- 44
2019-08-07 14:00:00 23.2 13 Sudoeste 22 Oeste 0 -- -- 46
2019-08-07 13:00:00 22.7 11 Oeste 22 Sudoeste 0 -- -- 52
2019-08-07 12:00:00 23.2 13 Oeste 26 Oeste 0 -- -- 50
2019-08-07 11:00:00 22.7 12 Noroeste 21 Oeste 0 -- -- 51
2019-08-07 10:00:00 21.1 12 Oeste 17 Oeste 0 -- -- 55
2019-08-07 09:00:00 20.1 9 Oeste 14 Sudoeste 0 -- -- 56
2019-08-07 08:00:00 19 3 Oeste 10 Oeste 0 -- -- 55
2019-08-07 07:00:00 19.2 4 Oeste 10 Oeste 0 -- -- 52
2019-08-07 06:00:00 20 4 Norte 15 Sur 0 -- -- 49
2019-08-07 05:00:00 20.3 9 Sudeste 14 Sudeste 0 -- -- 49
2019-08-07 04:00:00 20.2 3 Sudoeste 15 Noroeste 0 -- -- 46
2019-08-07 03:00:00 20.4 3 Sudeste 12 Sur 0 -- -- 45
2019-08-07 02:00:00 21.1 11 Sudeste 17 Sudeste 0 -- -- 45
2019-08-07 01:00:00 22 8 Sudoeste 19 Noroeste 0 -- -- 43
2019-08-07 00:00:00 22.7 10 Oeste 21 Oeste 0 -- -- 41
2019-08-06 23:00:00 24 0 Calma 6 Oeste 0 -- -- 38
2019-08-06 22:00:00 26.1 4 Noroeste 14 Oeste 0 -- -- 33
2019-08-06 21:00:00 27.5 8 Oeste 21 Oeste 0 -- -- 31
2019-08-06 20:00:00 29.2 13 Oeste 27 Oeste 0 -- -- 27
2019-08-06 19:00:00 30.5 16 Oeste 31 Noroeste 0 -- -- 24
2019-08-06 18:00:00 31.5 11 Noroeste 32 Oeste 0 -- -- 22
2019-08-06 17:00:00 31.7 19 Noroeste 28 Noroeste 0 -- -- 22
2019-08-06 16:00:00 31.4 14 Noroeste 30 Oeste 0 -- -- 22
2019-08-06 15:00:00 30.6 10 Noroeste 30 Oeste 0 -- -- 24
2019-08-06 14:00:00 29.3 15 Noroeste 28 Oeste 0 -- -- 25
2019-08-06 13:00:00 29.2 13 Oeste 29 Noroeste 0 -- -- 25
2019-08-06 12:00:00 27.9 17 Noroeste 27 Noroeste 0 -- -- 31
2019-08-06 11:00:00 25.9 4 Noroeste 12 Noroeste 0 -- -- 35
2019-08-06 10:00:00 23.7 3 Sudeste 6 Este 0 -- -- 40
2019-08-06 09:00:00 19.7 4 Oeste 12 Oeste 0 -- -- 51
2019-08-06 08:00:00 17.8 4 Sudoeste 9 Oeste 0 -- -- 52
2019-08-06 07:00:00 16.9 2 Noroeste 14 Noroeste 0 -- -- 52
2019-08-06 06:00:00 18.7 7 Sudeste 11 Sur 0 -- -- 47
2019-08-06 05:00:00 19.1 7 Sudeste 13 Sur 0 -- -- 46
2019-08-06 04:00:00 19.8 8 Sur 11 Sur 0 -- -- 44
2019-08-06 03:00:00 20.8 7 Sur 13 Sur 0 -- -- 40
2019-08-06 02:00:00 20 6 Sur 10 Sudeste 0 -- -- 39
2019-08-06 01:00:00 21.4 9 Sudeste 10 Sudeste 0 -- -- 34
2019-08-06 00:00:00 22.1 7 Sudeste 9 Sudeste 0 -- -- 32
2019-08-05 23:00:00 23.5 6 Sudeste 9 Sudeste 0 -- -- 30
2019-08-05 22:00:00 26.7 5 Oeste 25 Oeste 0 -- -- 24
2019-08-05 21:00:00 29.8 12 Oeste 25 Oeste 0 -- -- 22
2019-08-05 20:00:00 31.2 19 Noroeste 30 Noroeste 0 -- -- 21
2019-08-05 19:00:00 32.6 21 Oeste 35 Oeste 0 -- -- 17
2019-08-05 18:00:00 33.2 13 Noroeste 27 Noroeste 0 -- -- 15
2019-08-05 17:00:00 33 18 Noroeste 30 Noroeste 0 -- -- 18
2019-08-05 16:00:00 32.3 16 Noroeste 34 Oeste 0 -- -- 20
2019-08-05 15:00:00 31.5 18 Noroeste 36 Norte 0 -- -- 20
2019-08-05 14:00:00 30.3 14 Oeste 33 Oeste 0 -- -- 20
2019-08-05 13:00:00 29.4 14 Oeste 28 Noroeste 0 -- -- 21
2019-08-05 12:00:00 27.5 8 Noroeste 15 Noroeste 0 -- -- 31
2019-08-05 11:00:00 25.5 6 Norte 12 Noroeste 0 -- -- 35
2019-08-05 10:00:00 23.3 3 Norte 8 Noroeste 0 -- -- 36
2019-08-05 09:00:00 20.3 2 Oeste 8 Sur 0 -- -- 43
2019-08-05 08:00:00 18 6 Sur 14 Sudoeste 0 -- -- 49
2019-08-05 07:00:00 16.1 6 Sur 12 Sur 0 -- -- 51
2019-08-05 06:00:00 17.4 3 Sur 7 Sur 0 -- -- 46
2019-08-05 05:00:00 18.1 5 Sudeste 10 Sudeste 0 -- -- 45
2019-08-05 04:00:00 19.3 7 Sudeste 10 Sudeste 0 -- -- 43
2019-08-05 03:00:00 19.8 8 Sudeste 11 Sudeste 0 -- -- 43
2019-08-05 02:00:00 20.3 6 Sudeste 10 Sudoeste 0 -- -- 41
2019-08-05 01:00:00 21.4 5 Sur 8 Sudeste 0 -- -- 37
2019-08-05 00:00:00 22.5 5 Sudeste 10 Sudeste 0 -- -- 35
2019-08-04 23:00:00 23.7 8 Sudeste 13 Sudeste 0 -- -- 33
2019-08-04 22:00:00 26 0 Calma 14 Noroeste 0 -- -- 29
2019-08-04 21:00:00 29.5 11 Noroeste 23 Oeste 0 -- -- 24
2019-08-04 20:00:00 31 16 Oeste 30 Oeste 0 -- -- 21
2019-08-04 19:00:00 32.3 15 Noroeste 31 Oeste 0 -- -- 19
2019-08-04 18:00:00 32.5 8 Noroeste 36 Oeste 0 -- -- 18
2019-08-04 17:00:00 32.1 14 Noroeste 36 Noroeste 0 -- -- 20
2019-08-04 16:00:00 32.2 13 Oeste 45 Oeste 0 -- -- 21
2019-08-04 15:00:00 30.6 8 Norte 26 Sudoeste 0 -- -- 24
2019-08-04 14:00:00 29.7 15 Oeste 26 Oeste 0 -- -- 27
2019-08-04 13:00:00 28.1 9 Noroeste 26 Noroeste 0 -- -- 31
2019-08-04 12:00:00 26.6 9 Noroeste 22 Noroeste 0 -- -- 38
2019-08-04 11:00:00 24.5 5 Noroeste 13 Sudoeste 0 -- -- 42
2019-08-04 10:00:00 22.2 6 Oeste 14 Noroeste 0 -- -- 47
2019-08-04 09:00:00 20.1 4 Oeste 8 Noroeste 0 -- -- 46
2019-08-04 08:00:00 17.9 2 Noroeste 11 Oeste 0 -- -- 50
2019-08-04 07:00:00 18.8 8 Oeste 18 Oeste 0 -- -- 51
2019-08-04 06:00:00 19.7 6 Sudoeste 14 Sudoeste 0 -- -- 46
2019-08-04 05:00:00 20 4 Sudoeste 13 Sudoeste 0 -- -- 41
2019-08-04 04:00:00 21.4 8 Sur 13 Sudoeste 0 -- -- 38
2019-08-04 03:00:00 21.8 8 Sur 13 Sudoeste 0 -- -- 36
2019-08-04 02:00:00 22 8 Sur 16 Sudoeste 0 -- -- 33
2019-08-04 01:00:00 22 8 Sudeste 12 Sudeste 0 -- -- 29
2019-08-04 00:00:00 22.6 8 Sudeste 11 Sudeste 0 -- -- 30
2019-08-03 23:00:00 23.4 8 Sudeste 13 Sudeste 0 -- -- 28
2019-08-03 22:00:00 26 5 Sur 22 Noroeste 0 -- -- 24
2019-08-03 21:00:00 30.4 10 Noroeste 25 Noroeste 0 -- -- 18
2019-08-03 20:00:00 32.1 13 Oeste 26 Oeste 0 -- -- 16
2019-08-03 19:00:00 32.9 15 Noroeste 35 Oeste 0 -- -- 15
2019-08-03 18:00:00 32.6 19 Oeste 35 Oeste 0 -- -- 16
2019-08-03 17:00:00 32.4 18 Oeste 31 Oeste 0 -- -- 17
2019-08-03 16:00:00 32.4 15 Sudoeste 39 Noroeste 0 -- -- 18
2019-08-03 15:00:00 32.1 18 Sudoeste 32 Sudoeste 0 -- -- 17
2019-08-03 14:00:00 31.1 16 Oeste 31 Noroeste 0 -- -- 18
2019-08-03 13:00:00 30.1 15 Noroeste 31 Oeste 0 -- -- 20
2019-08-03 12:00:00 29.7 8 Oeste 23 Oeste 0 -- -- 23
2019-08-03 11:00:00 27.5 4 Noroeste 9 Noroeste 0 -- -- 27
2019-08-03 10:00:00 25.3 4 Norte 10 Oeste 0 -- -- 30
2019-08-03 09:00:00 22.8 3 Noroeste 5 Sudeste 0 -- -- 32
2019-08-03 08:00:00 19.7 4 Sur 9 Sudeste 0 -- -- 41
2019-08-03 07:00:00 20.6 9 Sur 21 Sudeste 0 -- -- 39
2019-08-03 06:00:00 20.8 15 Sur 20 Sur 0 -- -- 38
2019-08-03 05:00:00 19.4 8 Sudeste 15 Sudeste 0 -- -- 38
2019-08-03 04:00:00 18.7 9 Sudeste 14 Sudeste 0 -- -- 41
2019-08-03 03:00:00 18.1 4 Sudeste 13 Sudeste 0 -- -- 44
2019-08-03 02:00:00 18.8 3 Sudeste 8 Sudeste 0 -- -- 42
2019-08-03 01:00:00 20.3 3 Noroeste 7 Sur 0 -- -- 39
2019-08-03 00:00:00 21.6 4 Sudeste 12 Este 0 -- -- 36
2019-08-02 23:00:00 24 9 Este 14 Este 0 -- -- 30
2019-08-02 22:00:00 25.9 9 Este 21 Nordeste 0 -- -- 27
2019-08-02 21:00:00 29.2 12 Nordeste 22 Nordeste 0 -- -- 23
2019-08-02 20:00:00 31.2 11 Noroeste 27 Norte 0 -- -- 20
2019-08-02 19:00:00 32.1 14 Noroeste 26 Noroeste 0 -- -- 21
2019-08-02 18:00:00 32.2 8 Noroeste 19 Norte 0 -- -- 21
2019-08-02 17:00:00 31.8 12 Noroeste 27 Noroeste 0 -- -- 21
2019-08-02 16:00:00 31 11 Noroeste 28 Norte 0 -- -- 23
2019-08-02 15:00:00 30.5 14 Noroeste 26 Noroeste 0 -- -- 23
2019-08-02 14:00:00 28.9 13 Oeste 23 Noroeste 0 -- -- 26
2019-08-02 13:00:00 28 12 Noroeste 19 Noroeste 0 -- -- 27
2019-08-02 12:00:00 26.6 9 Noroeste 17 Noroeste 0 -- -- 30
2019-08-02 11:00:00 24.4 4 Noroeste 10 Noroeste 0 -- -- 35
2019-08-02 10:00:00 22.2 4 Noroeste 9 Noroeste 0 -- -- 40
2019-08-02 09:00:00 19.5 0 Calma 3 Noroeste 0 -- -- 47
2019-08-02 08:00:00 15.5 0 Calma 2 Sur 0 -- -- 58
2019-08-02 07:00:00 14.5 2 Sur 7 Noroeste 0 -- -- 64
2019-08-02 06:00:00 16.1 7 Noroeste 13 Oeste 0 -- -- 60
2019-08-02 05:00:00 17.4 10 Sudeste 13 Este 0 -- -- 58
2019-08-02 04:00:00 17.4 10 Sudeste 13 Sudeste 0 -- -- 58
2019-08-02 03:00:00 17.5 9 Sudeste 12 Sudeste 0 -- -- 54
2019-08-02 02:00:00 18 9 Sudeste 11 Sudeste 0 -- -- 47
2019-08-02 01:00:00 18.1 7 Sudeste 8 Nordeste 0 -- -- 49
2019-08-02 00:00:00 20.2 3 Este 10 Sudeste 0 -- -- 37
2019-08-01 23:00:00 21.3 6 Sudeste 11 Sudeste 0 -- -- 35
2019-08-01 22:00:00 24.5 6 Noroeste 17 Oeste 0 -- -- 29
2019-08-01 21:00:00 26.8 12 Oeste 26 Noroeste 0 -- -- 26
2019-08-01 20:00:00 28 18 Noroeste 31 Oeste 0 -- -- 24
2019-08-01 19:00:00 29.2 15 Noroeste 34 Oeste 0 -- -- 24
2019-08-01 18:00:00 29.2 18 Oeste 33 Noroeste 0 -- -- 24
2019-08-01 17:00:00 29.3 21 Oeste 36 Oeste 0 -- -- 25
2019-08-01 16:00:00 28.6 22 Oeste 40 Oeste 0 -- -- 27
2019-08-01 15:00:00 27.9 21 Oeste 50 Oeste 0 -- -- 28
2019-08-01 14:00:00 27 20 Oeste 35 Noroeste 0 -- -- 27
2019-08-01 13:00:00 26.1 18 Oeste 35 Oeste 0 -- -- 33
2019-08-01 12:00:00 25 17 Oeste 34 Oeste 0 -- -- 40
2019-08-01 11:00:00 23.5 10 Noroeste 18 Noroeste 0 -- -- 51
2019-08-01 10:00:00 22.8 5 Noroeste 11 Noroeste 0 -- -- 54
2019-08-01 09:00:00 20.8 0 Calma 6 Sudeste 0 -- -- 57
2019-08-01 08:00:00 18 0 Calma 9 Noroeste 0 -- -- 65
2019-08-01 07:00:00 20.3 7 Sudoeste 27 Sur 0 -- -- 64
2019-08-01 06:00:00 20.9 13 Sur 30 Sur 0 -- -- 64
2019-08-01 05:00:00 20.8 17 Sur 30 Sudoeste 0 -- -- 66
2019-08-01 04:00:00 21.4 6 Sudoeste 31 Sur 0 -- -- 65
2019-08-01 03:00:00 22.6 14 Sur 33 Sudeste 0 -- -- 60
2019-08-01 02:00:00 22.8 3 Oeste 30 Sur 0 -- -- 58
2019-08-01 01:00:00 23.4 15 Sur 28 Sur 0 -- -- 57
2019-08-01 00:00:00 23.8 12 Sur 36 Sudeste 0 -- -- 54
2019-07-31 23:00:00 25.2 20 Sur 35 Sudeste 0 -- -- 48
2019-07-31 22:00:00 24.7 11 Sudeste 17 Sur 0 -- -- 36
2019-07-31 21:00:00 27 13 Sur 23 Sur 0 -- -- 31
2019-07-31 20:00:00 27.8 12 Sur 26 Sur 0 -- -- 30
2019-07-31 19:00:00 29.2 21 Sur 32 Sur 0 -- -- 29
2019-07-31 18:00:00 29.4 18 Sudoeste 39 Sur 0 -- -- 26
2019-07-31 17:00:00 30.2 19 Sur 40 Este 0 -- -- 26
2019-07-31 16:00:00 27.8 15 Sudeste 33 Sur 0 -- -- 35
2019-07-31 15:00:00 28.9 21 Sudeste 36 Sudeste 0 -- -- 33
2019-07-31 14:00:00 27.7 21 Sudeste 40 Sur 0 -- -- 36
2019-07-31 13:00:00 25.9 8 Norte 23 Oeste 0 -- -- 40
2019-07-31 12:00:00 24.6 10 Noroeste 20 Noroeste 0 -- -- 43
2019-07-31 11:00:00 24 6 Sudeste 16 Sur 0 -- -- 45
2019-07-31 10:00:00 22 8 Sudeste 18 Sur 0 -- -- 51
2019-07-31 09:00:00 18.3 3 Sur 10 Este 0 -- -- 51
2019-07-31 08:00:00 11.7 0 Calma 11 Este 0 -- -- 63
2019-07-31 07:00:00 10.3 2 Noroeste 10 Este 0 -- -- 66
2019-07-31 06:00:00 10.7 0 Calma 8 Sudeste 0 -- -- 65
2019-07-31 05:00:00 12.7 9 Nordeste 13 Nordeste 0 -- -- 60
2019-07-31 04:00:00 12.4 3 Sur 12 Nordeste 0 -- -- 58
2019-07-31 03:00:00 12.7 9 Nordeste 10 Este 0 -- -- 58
2019-07-31 02:00:00 13.1 8 Sudeste 9 Este 0 -- -- 55
2019-07-31 01:00:00 14 5 Sudeste 9 Este 0 -- -- 49
2019-07-31 00:00:00 14.9 7 Sudeste 11 Nordeste 0 -- -- 44
2019-07-30 23:00:00 17.1 8 Nordeste 12 Norte 0 -- -- 38
2019-07-30 22:00:00 19.3 6 Nordeste 16 Norte 0 -- -- 32
2019-07-30 21:00:00 21.4 11 Norte 22 Noroeste 0 -- -- 30
2019-07-30 20:00:00 23.8 11 Noroeste 21 Noroeste 0 -- -- 30
2019-07-30 19:00:00 24.6 9 Norte 24 Noroeste 0 -- -- 27
2019-07-30 18:00:00 24.6 11 Noroeste 30 Oeste 0 -- -- 27
2019-07-30 17:00:00 24.2 13 Oeste 24 Oeste 0 -- -- 26
2019-07-30 16:00:00 23.1 15 Noroeste 27 Noroeste 0 -- -- 27
2019-07-30 15:00:00 21.8 5 Nordeste 22 Norte 0 -- -- 27
2019-07-30 14:00:00 20.2 9 Norte 19 Noroeste 0 -- -- 26
2019-07-30 13:00:00 18.8 5 Nordeste 19 Norte 0 -- -- 34
2019-07-30 12:00:00 17.8 10 Noroeste 17 Noroeste 0 -- -- 41
2019-07-30 11:00:00 15.9 4 Noroeste 12 Oeste 0 -- -- 49
2019-07-30 10:00:00 13.3 7 Oeste 14 Oeste 0 -- -- 61
2019-07-30 09:00:00 11.7 3 Oeste 6 Sur 0 -- -- 66
2019-07-30 08:00:00 9.9 3 Sur 12 Oeste 0 -- -- 71
2019-07-30 07:00:00 9.7 3 Sudoeste 9 Sur 0 -- -- 67
2019-07-30 06:00:00 9.6 7 Sur 8 Sur 0 -- -- 65
2019-07-30 05:00:00 11.3 4 Sudoeste 7 Sudoeste 0 -- -- 58
2019-07-30 04:00:00 12 5 Sur 16 Noroeste 0 -- -- 55
2019-07-30 03:00:00 13.4 5 Oeste 15 Noroeste 0 -- -- 50
2019-07-30 02:00:00 14.4 4 Oeste 13 Sudoeste 0 -- -- 46
2019-07-30 01:00:00 15.6 6 Sudoeste 13 Sudoeste 0 -- -- 43
2019-07-30 00:00:00 16.6 5 Sudoeste 12 Oeste 0 -- -- 41
2019-07-29 23:00:00 18.4 7 Sudoeste 18 Noroeste 0 -- -- 37
2019-07-29 22:00:00 20.4 12 Oeste 24 Oeste 0 -- -- 34
2019-07-29 21:00:00 23 17 Oeste 34 Oeste 0 -- -- 28
2019-07-29 20:00:00 25 19 Oeste 41 Oeste 0 -- -- 26
2019-07-29 19:00:00 25.4 21 Oeste 38 Oeste 0 -- -- 28
2019-07-29 18:00:00 25.8 24 Oeste 48 Oeste 0 -- -- 33
2019-07-29 17:00:00 26.3 21 Oeste 45 Oeste 0 -- -- 33
2019-07-29 16:00:00 26.9 20 Oeste 41 Oeste 0 -- -- 31
2019-07-29 15:00:00 26.1 22 Oeste 38 Oeste 0 -- -- 28
2019-07-29 14:00:00 25.1 17 Noroeste 30 Noroeste 0 -- -- 26
2019-07-29 13:00:00 23.6 15 Oeste 32 Oeste 0 -- -- 34
2019-07-29 12:00:00 21.5 13 Noroeste 28 Oeste 0 -- -- 43
2019-07-29 11:00:00 20.5 11 Oeste 24 Noroeste 0 -- -- 47
2019-07-29 10:00:00 18.8 11 Oeste 18 Oeste 0 -- -- 49
2019-07-29 09:00:00 16.9 9 Oeste 13 Oeste 0 -- -- 52
2019-07-29 08:00:00 15 4 Sudoeste 12 Oeste 0 -- -- 52
2019-07-29 07:00:00 15.9 5 Oeste 32 Oeste 0 -- -- 49
2019-07-29 06:00:00 16.4 22 Oeste 35 Oeste 0 -- -- 42
2019-07-29 05:00:00 15.8 5 Sudeste 11 Sudeste 0 -- -- 42
2019-07-29 04:00:00 15.9 9 Sudeste 10 Sudeste 0 -- -- 41
2019-07-29 03:00:00 16.1 8 Sudeste 10 Sudeste 0 -- -- 40
2019-07-29 02:00:00 16.3 10 Sudeste 12 Sudeste 0 -- -- 34
2019-07-29 01:00:00 16.7 10 Sudeste 12 Sudeste 0 -- -- 31
2019-07-29 00:00:00 17.2 7 Sudeste 10 Sudeste 0 -- -- 30
2019-07-28 23:00:00 17.8 5 Sudeste 9 Sudeste 0 -- -- 31
2019-07-28 22:00:00 21.3 3 Sur 13 Oeste 0 -- -- 25
2019-07-28 21:00:00 24.5 8 Oeste 21 Noroeste 0 -- -- 21
2019-07-28 20:00:00 25.3 14 Oeste 25 Oeste 0 -- -- 20
2019-07-28 19:00:00 25.7 12 Oeste 26 Noroeste 0 -- -- 22
2019-07-28 18:00:00 25.7 9 Oeste 26 Oeste 0 -- -- 24
2019-07-28 17:00:00 25.1 12 Noroeste 28 Oeste 0 -- -- 22
2019-07-28 16:00:00 24 12 Oeste 31 Noroeste 0 -- -- 24
2019-07-28 15:00:00 23 12 Oeste 28 Oeste 0 -- -- 27
2019-07-28 14:00:00 21.1 8 Oeste 22 Noroeste 0 -- -- 35
2019-07-28 13:00:00 19.8 6 Oeste 19 Norte 0 -- -- 38
2019-07-28 12:00:00 18.7 5 Sur 17 Noroeste 0 -- -- 44
2019-07-28 11:00:00 16.6 3 Nordeste 12 Noroeste 0 -- -- 56
2019-07-28 10:00:00 14.5 4 Noroeste 9 Norte 0 -- -- 68
2019-07-28 09:00:00 12 2 Oeste 4 Oeste 0 -- -- 78
2019-07-28 08:00:00 9.3 3 Este 8 Sudeste 0 -- -- 87
2019-07-28 07:00:00 7.7 7 Sudeste 9 Sur 0 -- -- 91
2019-07-28 06:00:00 8.4 4 Sudeste 6 Sudeste 0 -- -- 90
2019-07-28 05:00:00 10.2 6 Nordeste 10 Nordeste 0 -- -- 87
2019-07-28 04:00:00 9.5 5 Sudeste 10 Este 0 -- -- 87
2019-07-28 03:00:00 10 6 Este 10 Sudeste 0 -- -- 85
2019-07-28 02:00:00 11.3 2 Nordeste 8 Norte 0 -- -- 80
2019-07-28 01:00:00 13.2 0 Calma 16 Nordeste 0 -- -- 74
2019-07-28 00:00:00 13.9 6 Nordeste 15 Norte 0 -- -- 74
2019-07-27 23:00:00 14.9 8 Norte 21 Nordeste 0 -- -- 71
2019-07-26 12:00:00 -- -- -- -- -- -- -- -- --
2019-07-26 11:00:00 -- -- -- -- -- -- -- -- --
2019-07-26 10:00:00 17.1 11 Noroeste 18 Oeste 0 -- -- 80
2019-07-26 09:00:00 17.1 8 Noroeste 18 Oeste 0 -- -- 84
2019-07-26 08:00:00 17 10 Oeste 17 Oeste 0 -- -- 85
2019-07-26 07:00:00 17.5 3 Oeste 21 Noroeste 0 -- -- 77
2019-07-26 06:00:00 18.1 4 Este 20 Oeste 0 -- -- 75
2019-07-26 05:00:00 18.6 14 Oeste 29 Oeste 0 -- -- 72
2019-07-26 04:00:00 20.8 17 Oeste 29 Oeste 0 -- -- 52
2019-07-26 03:00:00 21.3 4 Sudeste 8 Oeste 0 -- -- 47
2019-07-26 02:00:00 21.8 2 Oeste 14 Sudoeste 0 -- -- 43
2019-07-26 01:00:00 22.6 9 Sudoeste 17 Sudoeste 0 -- -- 38
2019-07-26 00:00:00 23.3 10 Sudoeste 18 Sudoeste 0 -- -- 36